createdAt,value
2023-02-18T00:00:17.346Z,50.08
2023-02-18T00:01:16.540Z,49.59
2023-02-18T00:02:13.317Z,50.32
2023-02-18T00:03:10.067Z,51.13
2023-02-18T00:04:06.780Z,51.50
2023-02-18T00:05:03.775Z,52.37
2023-02-18T00:06:00.367Z,51.26
2023-02-18T00:06:57.047Z,51.10
2023-02-18T00:07:53.738Z,51.13
2023-02-18T00:08:51.067Z,50.36
2023-02-18T00:09:47.603Z,51.04
2023-02-18T00:10:44.334Z,50.13
2023-02-18T00:11:40.935Z,50.58
2023-02-18T00:12:37.904Z,50.47
2023-02-18T00:13:34.698Z,50.42
2023-02-18T00:14:31.274Z,50.97
2023-02-18T00:15:27.958Z,51.93
2023-02-18T00:16:26.150Z,52.82
2023-02-18T00:17:22.882Z,52.52
2023-02-18T00:18:19.558Z,52.00
2023-02-18T00:19:19.507Z,52.84
2023-02-18T00:20:16.309Z,51.25
2023-02-18T00:21:13.438Z,51.45
2023-02-18T00:22:10.026Z,51.74
2023-02-18T00:23:06.592Z,50.88
2023-02-18T00:24:05.188Z,51.34
2023-02-18T00:25:01.838Z,51.30
2023-02-18T00:26:11.624Z,52.30
2023-02-18T00:27:08.540Z,51.47
2023-02-18T00:28:05.119Z,51.94
2023-02-18T00:29:02.310Z,51.18
2023-02-18T00:30:00.499Z,51.02
2023-02-18T00:30:57.259Z,51.50
2023-02-18T00:31:53.985Z,52.35
2023-02-18T00:32:50.642Z,52.09
2023-02-18T00:33:47.271Z,50.80
2023-02-18T00:34:43.894Z,51.04
2023-02-18T00:35:40.509Z,51.01
2023-02-18T00:36:37.180Z,52.11
2023-02-18T00:37:35.368Z,51.00
2023-02-18T00:38:32.440Z,51.32
2023-02-18T00:39:29.005Z,51.73
2023-02-18T00:40:25.653Z,51.87
2023-02-18T00:41:24.171Z,51.51
2023-02-18T00:42:20.730Z,51.45
2023-02-18T00:43:17.282Z,52.25
2023-02-18T00:44:13.905Z,53.40
2023-02-18T00:45:10.499Z,54.06
2023-02-18T00:46:08.013Z,53.50
2023-02-18T00:47:04.804Z,53.94
2023-02-18T00:48:01.397Z,54.60
2023-02-18T00:48:58.158Z,53.88
2023-02-18T00:49:54.748Z,53.89
2023-02-18T00:50:51.421Z,52.76
2023-02-18T00:51:48.063Z,53.47
2023-02-18T00:52:44.622Z,53.84
2023-02-18T00:53:41.989Z,52.65
2023-02-18T00:54:38.578Z,52.82
2023-02-18T00:55:40.667Z,51.06
2023-02-18T00:56:37.367Z,51.97
2023-02-18T00:57:34.011Z,52.55
2023-02-18T00:58:31.159Z,52.64
2023-02-18T00:59:27.775Z,51.78
2023-02-18T01:00:25.569Z,52.54
2023-02-18T01:01:22.301Z,51.43
2023-02-18T01:02:18.915Z,52.12
2023-02-18T01:03:15.926Z,51.50
2023-02-18T01:04:13.079Z,50.93
2023-02-18T01:05:09.758Z,51.29
2023-02-18T01:06:08.071Z,52.42
2023-02-18T01:07:04.886Z,51.40
2023-02-18T01:08:02.015Z,51.21
2023-02-18T01:08:58.679Z,50.72
2023-02-18T01:09:55.276Z,50.28
2023-02-18T01:10:55.288Z,50.24
2023-02-18T01:11:51.921Z,50.37
2023-02-18T01:12:48.499Z,49.82
2023-02-18T01:13:45.142Z,49.96
2023-02-18T01:14:41.713Z,50.87
2023-02-18T01:15:40.007Z,50.41
2023-02-18T01:16:36.618Z,50.38
2023-02-18T01:17:33.245Z,51.11
2023-02-18T01:18:30.517Z,51.89
2023-02-18T01:19:27.196Z,51.40
2023-02-18T01:20:23.863Z,50.76
2023-02-18T01:21:20.717Z,50.28
2023-02-18T01:22:17.315Z,50.32
2023-02-18T01:23:14.037Z,50.90
2023-02-18T01:24:10.607Z,50.52
2023-02-18T01:25:08.228Z,50.10
2023-02-18T01:26:05.491Z,50.02
2023-02-18T01:27:02.319Z,50.66
2023-02-18T01:27:58.943Z,50.89
2023-02-18T01:28:55.515Z,51.93
2023-02-18T01:29:52.093Z,51.66
2023-02-18T01:30:49.948Z,50.95
2023-02-18T01:31:48.100Z,50.83
2023-02-18T01:32:45.346Z,51.18
2023-02-18T01:33:42.846Z,51.50
2023-02-18T01:34:39.569Z,51.50
2023-02-18T01:35:39.536Z,51.39
2023-02-18T01:36:36.150Z,51.43
2023-02-18T01:37:33.238Z,51.48
2023-02-18T01:38:29.924Z,51.92
2023-02-18T01:39:26.658Z,51.69
2023-02-18T01:40:26.937Z,52.26
2023-02-18T01:41:23.786Z,52.63
2023-02-18T01:42:23.259Z,53.51
2023-02-18T01:43:20.661Z,54.28
2023-02-18T01:44:28.739Z,53.53
2023-02-18T01:45:34.472Z,53.84
2023-02-18T01:46:32.022Z,53.32
2023-02-18T01:47:28.632Z,52.80
2023-02-18T01:48:30.405Z,53.05
2023-02-18T01:49:31.846Z,52.38
2023-02-18T01:50:28.426Z,52.59
2023-02-18T01:51:32.240Z,52.97
2023-02-18T01:52:32.490Z,53.74
2023-02-18T01:53:43.488Z,53.42
2023-02-18T01:54:44.589Z,53.14
2023-02-18T01:55:41.417Z,53.72
2023-02-18T01:56:40.996Z,53.68
2023-02-18T01:57:38.983Z,54.26
2023-02-18T01:58:36.270Z,54.41
2023-02-18T01:59:48.840Z,55.52
2023-02-18T02:00:45.530Z,55.33
2023-02-18T02:01:44.876Z,54.92
2023-02-18T02:02:45.822Z,54.82
2023-02-18T02:03:42.342Z,55.36
2023-02-18T02:04:39.355Z,56.04
2023-02-18T02:05:35.995Z,55.83
2023-02-18T02:06:32.644Z,55.68
2023-02-18T02:07:30.022Z,55.38
2023-02-18T02:08:27.274Z,55.62
2023-02-18T02:09:28.671Z,55.23
2023-02-18T02:10:34.957Z,56.18
2023-02-18T02:11:46.897Z,56.61
2023-02-18T02:12:49.206Z,56.86
2023-02-18T02:14:04.480Z,57.32
2023-02-18T02:15:18.129Z,57.93
2023-02-18T02:16:35.017Z,57.78
2023-02-18T02:18:00.957Z,57.29
2023-02-18T02:19:21.281Z,57.10
2023-02-18T02:20:33.238Z,57.68
2023-02-18T02:22:01.879Z,57.49
2023-02-18T02:22:58.457Z,57.30
2023-02-18T02:24:16.883Z,57.07
2023-02-18T02:25:35.897Z,57.19
2023-02-18T02:26:46.552Z,58.08
2023-02-18T02:28:11.336Z,57.66
2023-02-18T02:29:24.936Z,57.78
2023-02-18T02:30:53.795Z,58.42
2023-02-18T02:32:25.663Z,58.98
2023-02-18T02:33:32.723Z,58.83
2023-02-18T02:34:34.746Z,58.90
2023-02-18T02:35:38.050Z,59.20
2023-02-18T02:36:48.760Z,58.75
2023-02-18T02:38:09.527Z,58.29
2023-02-18T02:39:26.239Z,58.57
2023-02-18T02:40:28.836Z,58.07
2023-02-18T02:41:37.550Z,58.49
2023-02-18T02:43:02.721Z,58.47
2023-02-18T02:44:15.342Z,58.59
2023-02-18T02:45:33.559Z,58.80
2023-02-18T02:46:53.806Z,57.97
2023-02-18T02:48:33.096Z,58.83
2023-02-18T02:49:49.636Z,59.03
2023-02-18T02:51:00.267Z,59.73
2023-02-18T02:52:08.489Z,60.11
2023-02-18T02:53:17.554Z,60.37
2023-02-18T02:54:19.230Z,60.83
2023-02-18T02:55:15.947Z,60.91
2023-02-18T02:56:21.381Z,60.57
2023-02-18T02:57:17.948Z,60.42
2023-02-18T02:58:19.742Z,60.25
2023-02-18T02:59:24.188Z,60.46
2023-02-18T03:00:32.417Z,60.86
2023-02-18T03:01:35.016Z,61.59
2023-02-18T03:02:43.581Z,60.95
2023-02-18T03:03:46.019Z,60.96
2023-02-18T03:04:42.504Z,60.96
2023-02-18T03:06:01.485Z,61.49
2023-02-18T03:07:06.865Z,62.11
2023-02-18T03:08:34.424Z,61.62
2023-02-18T03:09:55.887Z,61.59
2023-02-18T03:11:03.000Z,61.78
2023-02-18T03:12:22.940Z,60.66
2023-02-18T03:14:02.382Z,60.47
2023-02-18T03:15:17.281Z,60.24
2023-02-18T03:16:53.815Z,59.97
2023-02-18T03:18:38.700Z,60.42
2023-02-18T03:19:43.076Z,60.27
2023-02-18T03:20:46.779Z,60.16
2023-02-18T03:21:59.083Z,60.09
2023-02-18T03:22:59.669Z,60.58
2023-02-18T03:24:02.216Z,60.70
2023-02-18T03:25:00.364Z,61.08
2023-02-18T03:25:59.405Z,61.42
2023-02-18T03:27:07.969Z,62.07
2023-02-18T03:28:14.454Z,61.27
2023-02-18T03:29:14.483Z,61.35
2023-02-18T03:30:16.780Z,61.54
2023-02-18T03:31:18.845Z,62.51
2023-02-18T03:32:21.309Z,61.58
2023-02-18T03:33:20.565Z,60.93
2023-02-18T03:34:23.773Z,61.18
2023-02-18T03:35:20.564Z,60.84
2023-02-18T03:36:19.157Z,61.02
2023-02-18T03:37:16.468Z,61.60
2023-02-18T03:38:21.800Z,61.74
2023-02-18T03:39:20.294Z,61.68
2023-02-18T03:40:18.582Z,61.08
2023-02-18T03:41:15.717Z,60.52
2023-02-18T03:42:12.471Z,60.42
2023-02-18T03:43:09.212Z,60.49
2023-02-18T03:44:08.882Z,60.30
2023-02-18T03:45:05.742Z,60.73
2023-02-18T03:46:03.771Z,60.88
2023-02-18T03:47:00.457Z,60.47
2023-02-18T03:47:58.191Z,60.48
2023-02-18T03:48:54.840Z,59.95
2023-02-18T03:49:51.419Z,60.67
2023-02-18T03:50:48.030Z,61.07
2023-02-18T03:51:44.879Z,61.74
2023-02-18T03:52:41.466Z,62.41
2023-02-18T03:53:38.032Z,62.50
2023-02-18T03:54:34.709Z,61.18
2023-02-18T03:55:31.435Z,61.51
2023-02-18T03:56:28.420Z,61.95
2023-02-18T03:57:25.042Z,61.25
2023-02-18T03:58:21.646Z,61.41
2023-02-18T03:59:18.318Z,62.10
2023-02-18T04:00:15.221Z,61.79
2023-02-18T04:01:12.027Z,62.04
2023-02-18T04:02:08.817Z,61.79
2023-02-18T04:03:05.399Z,61.83
2023-02-18T04:04:03.277Z,61.57
2023-02-18T04:05:00.027Z,61.43
2023-02-18T04:05:57.215Z,61.45
2023-02-18T04:06:53.849Z,61.95
2023-02-18T04:07:50.440Z,62.03
2023-02-18T04:08:47.142Z,62.19
2023-02-18T04:09:43.783Z,62.50
2023-02-18T04:10:40.494Z,62.20
2023-02-18T04:11:40.800Z,62.59
2023-02-18T04:12:37.374Z,62.85
2023-02-18T04:13:34.026Z,61.70
2023-02-18T04:14:30.645Z,60.67
2023-02-18T04:15:27.538Z,61.36
2023-02-18T04:16:24.142Z,60.40
2023-02-18T04:17:20.847Z,59.96
2023-02-18T04:18:18.007Z,59.18
2023-02-18T04:19:14.698Z,59.92
2023-02-18T04:20:11.925Z,60.50
2023-02-18T04:21:09.818Z,59.86
2023-02-18T04:22:06.709Z,60.49
2023-02-18T04:23:04.900Z,60.01
2023-02-18T04:24:01.652Z,60.06
2023-02-18T04:24:59.349Z,60.27
2023-02-18T04:25:55.950Z,60.70
2023-02-18T04:26:52.593Z,60.06
2023-02-18T04:27:49.283Z,60.09
2023-02-18T04:28:46.094Z,60.17
2023-02-18T04:29:42.789Z,60.47
2023-02-18T04:30:39.996Z,60.51
2023-02-18T04:31:37.070Z,60.38
2023-02-18T04:32:33.806Z,60.53
2023-02-18T04:33:30.388Z,60.53
2023-02-18T04:34:27.024Z,61.20
2023-02-18T04:35:23.866Z,61.55
2023-02-18T04:36:20.491Z,61.17
2023-02-18T04:37:17.194Z,60.83
2023-02-18T04:38:14.323Z,61.02
2023-02-18T04:39:10.912Z,61.44
2023-02-18T04:40:08.621Z,61.83
2023-02-18T04:41:05.348Z,61.08
2023-02-18T04:42:02.020Z,61.15
2023-02-18T04:42:59.196Z,61.18
2023-02-18T04:43:55.909Z,61.09
2023-02-18T04:44:52.532Z,61.34
2023-02-18T04:45:49.219Z,61.00
2023-02-18T04:46:45.790Z,61.44
2023-02-18T04:47:42.367Z,61.41
2023-02-18T04:48:39.051Z,62.19
2023-02-18T04:49:35.859Z,61.47
2023-02-18T04:50:32.578Z,61.65
2023-02-18T04:51:29.195Z,60.83
2023-02-18T04:52:26.046Z,60.57
2023-02-18T04:53:22.801Z,60.41
2023-02-18T04:54:19.368Z,60.81
2023-02-18T04:55:16.086Z,61.08
2023-02-18T04:56:13.062Z,59.95
2023-02-18T04:57:09.659Z,59.40
2023-02-18T04:58:06.349Z,59.56
2023-02-18T04:59:02.923Z,59.06
2023-02-18T04:59:59.690Z,60.20
2023-02-18T05:01:03.177Z,59.47
2023-02-18T05:01:59.816Z,59.37
2023-02-18T05:02:56.487Z,59.09
2023-02-18T05:03:53.191Z,59.76
2023-02-18T05:04:49.840Z,59.67
2023-02-18T05:05:46.591Z,59.69
2023-02-18T05:06:44.024Z,60.11
2023-02-18T05:07:42.548Z,59.77
2023-02-18T05:08:39.136Z,59.01
2023-02-18T05:09:35.830Z,59.37
2023-02-18T05:10:32.465Z,57.72
2023-02-18T05:11:29.018Z,57.27
2023-02-18T05:12:25.653Z,57.03
2023-02-18T05:13:22.981Z,57.27
2023-02-18T05:14:19.547Z,58.04
2023-02-18T05:15:16.334Z,58.47
2023-02-18T05:16:14.024Z,58.06
2023-02-18T05:17:10.690Z,58.24
2023-02-18T05:18:07.896Z,58.13
2023-02-18T05:19:04.516Z,58.67
2023-02-18T05:20:01.620Z,58.17
2023-02-18T05:20:58.610Z,58.25
2023-02-18T05:21:55.176Z,57.58
2023-02-18T05:22:51.812Z,57.67
2023-02-18T05:23:48.475Z,58.17
2023-02-18T05:24:45.110Z,58.96
2023-02-18T05:25:41.787Z,59.08
2023-02-18T05:26:38.472Z,58.96
2023-02-18T05:27:35.084Z,59.02
2023-02-18T05:28:32.022Z,59.27
2023-02-18T05:29:28.606Z,59.94
2023-02-18T05:30:25.369Z,59.83
2023-02-18T05:31:22.188Z,60.00
2023-02-18T05:32:18.959Z,60.59
2023-02-18T05:33:15.698Z,60.37
2023-02-18T05:34:12.282Z,60.46
2023-02-18T05:35:09.282Z,60.49
2023-02-18T05:36:06.295Z,60.91
2023-02-18T05:37:02.965Z,60.97
2023-02-18T05:37:59.477Z,60.86
2023-02-18T05:38:56.012Z,61.14
2023-02-18T05:39:52.592Z,61.36
2023-02-18T05:40:49.671Z,61.58
2023-02-18T05:41:46.217Z,61.60
2023-02-18T05:42:42.874Z,61.29
2023-02-18T05:43:58.245Z,61.68
2023-02-18T05:44:54.888Z,61.55
2023-02-18T05:45:51.499Z,61.04
2023-02-18T05:46:48.110Z,61.11
2023-02-18T05:47:44.817Z,61.05
2023-02-18T05:48:41.384Z,60.95
2023-02-18T05:49:39.002Z,61.44
2023-02-18T05:50:36.073Z,61.67
2023-02-18T05:51:32.760Z,61.30
2023-02-18T05:52:29.390Z,61.10
2023-02-18T05:53:25.949Z,60.27
2023-02-18T05:54:22.570Z,60.65
2023-02-18T05:55:19.380Z,60.42
2023-02-18T05:56:16.000Z,60.37
2023-02-18T05:57:14.828Z,60.71
2023-02-18T05:58:11.505Z,59.34
2023-02-18T05:59:08.075Z,59.59
2023-02-18T06:00:06.264Z,58.13
2023-02-18T06:01:03.128Z,57.53
2023-02-18T06:02:00.686Z,57.96
2023-02-18T06:02:59.613Z,58.88
2023-02-18T06:03:56.206Z,58.03
2023-02-18T06:04:52.772Z,57.62
2023-02-18T06:05:53.745Z,56.43
2023-02-18T06:06:50.521Z,55.90
2023-02-18T06:07:47.133Z,56.60
2023-02-18T06:08:43.710Z,55.41
2023-02-18T06:09:40.311Z,55.08
2023-02-18T06:10:36.984Z,57.44
2023-02-18T06:11:33.804Z,57.57
2023-02-18T06:12:30.476Z,57.94
2023-02-18T06:13:27.111Z,57.38
2023-02-18T06:14:23.831Z,57.92
2023-02-18T06:15:20.412Z,56.67
2023-02-18T06:16:17.018Z,56.18
2023-02-18T06:17:14.886Z,55.12
2023-02-18T06:18:11.465Z,55.00
2023-02-18T06:19:08.198Z,55.66
2023-02-18T06:20:05.310Z,53.75
2023-02-18T06:21:01.931Z,53.63
2023-02-18T06:21:58.629Z,53.61
2023-02-18T06:22:55.248Z,53.37
2023-02-18T06:23:51.941Z,53.97
2023-02-18T06:24:48.556Z,54.43
2023-02-18T06:25:45.259Z,54.86
2023-02-18T06:26:42.045Z,53.49
2023-02-18T06:27:38.802Z,54.36
2023-02-18T06:28:35.443Z,54.13
2023-02-18T06:29:32.084Z,54.01
2023-02-18T06:30:28.753Z,53.92
2023-02-18T06:31:25.518Z,53.31
2023-02-18T06:32:22.367Z,53.27
2023-02-18T06:33:19.042Z,53.71
2023-02-18T06:34:15.649Z,53.73
2023-02-18T06:35:12.244Z,54.24
2023-02-18T06:36:14.071Z,54.40
2023-02-18T06:37:10.695Z,53.62
2023-02-18T06:38:07.597Z,54.17
2023-02-18T06:39:05.532Z,54.00
2023-02-18T06:40:02.179Z,54.16
2023-02-18T06:40:58.873Z,53.96
2023-02-18T06:41:55.461Z,54.14
2023-02-18T06:42:52.009Z,53.87
2023-02-18T06:43:48.575Z,53.81
2023-02-18T06:44:45.176Z,53.84
2023-02-18T06:45:41.950Z,53.77
2023-02-18T06:46:38.575Z,54.81
2023-02-18T06:47:35.280Z,53.61
2023-02-18T06:48:32.814Z,54.28
2023-02-18T06:49:30.416Z,53.11
2023-02-18T06:50:27.127Z,52.14
2023-02-18T06:51:24.910Z,52.61
2023-02-18T06:52:21.559Z,52.88
2023-02-18T06:53:18.173Z,52.46
2023-02-18T06:54:14.747Z,52.04
2023-02-18T06:55:11.345Z,51.92
2023-02-18T06:56:08.331Z,51.51
2023-02-18T06:57:05.116Z,51.89
2023-02-18T06:58:01.736Z,51.64
2023-02-18T06:58:59.656Z,52.09
2023-02-18T06:59:56.254Z,51.63
2023-02-18T07:00:52.891Z,51.72
2023-02-18T07:01:49.509Z,51.58
2023-02-18T07:02:46.124Z,51.80
2023-02-18T07:03:42.699Z,51.06
2023-02-18T07:04:39.309Z,51.26
2023-02-18T07:05:35.943Z,51.04
2023-02-18T07:06:32.532Z,50.15
2023-02-18T07:07:29.140Z,49.87
2023-02-18T07:08:25.844Z,50.32
2023-02-18T07:09:22.404Z,50.33
2023-02-18T07:10:19.261Z,49.85
2023-02-18T07:11:16.011Z,48.91
2023-02-18T07:12:13.178Z,49.43
2023-02-18T07:13:10.355Z,48.39
2023-02-18T07:14:08.369Z,49.22
2023-02-18T07:15:05.368Z,48.31
2023-02-18T07:16:02.013Z,48.82
2023-02-18T07:17:00.162Z,48.08
2023-02-18T07:17:56.786Z,47.79
2023-02-18T07:18:53.397Z,48.62
2023-02-18T07:19:50.000Z,48.33
2023-02-18T07:20:46.698Z,48.02
2023-02-18T07:21:43.646Z,47.54
2023-02-18T07:22:40.260Z,47.66
2023-02-18T07:23:36.918Z,48.14
2023-02-18T07:24:33.501Z,48.11
2023-02-18T07:25:30.137Z,48.68
2023-02-18T07:26:26.727Z,48.54
2023-02-18T07:27:23.312Z,48.71
2023-02-18T07:28:19.890Z,49.44
2023-02-18T07:29:16.576Z,49.41
2023-02-18T07:30:13.856Z,49.16
2023-02-18T07:31:10.786Z,49.40
2023-02-18T07:32:07.502Z,49.18
2023-02-18T07:33:04.179Z,49.22
2023-02-18T07:34:00.939Z,49.13
2023-02-18T07:34:57.716Z,48.86
2023-02-18T07:35:55.849Z,49.70
2023-02-18T07:36:52.479Z,49.01
2023-02-18T07:37:50.144Z,48.48
2023-02-18T07:38:46.758Z,48.03
2023-02-18T07:39:43.719Z,48.45
2023-02-18T07:40:40.648Z,48.52
2023-02-18T07:41:37.346Z,48.92
2023-02-18T07:42:33.933Z,48.50
2023-02-18T07:43:30.541Z,49.09
2023-02-18T07:44:27.685Z,48.72
2023-02-18T07:45:24.376Z,47.58
2023-02-18T07:46:21.125Z,48.16
2023-02-18T07:47:19.815Z,48.47
2023-02-18T07:48:17.529Z,47.33
2023-02-18T07:49:14.091Z,46.28
2023-02-18T07:50:11.519Z,46.41
2023-02-18T07:51:09.770Z,46.80
2023-02-18T07:52:06.413Z,45.39
2023-02-18T07:53:04.852Z,45.85
2023-02-18T07:54:01.572Z,44.53
2023-02-18T07:55:00.919Z,44.41
2023-02-18T07:56:01.007Z,43.58
2023-02-18T07:56:58.847Z,44.54
2023-02-18T07:58:00.945Z,44.82
2023-02-18T07:58:58.694Z,44.17
2023-02-18T07:59:55.307Z,44.44
2023-02-18T08:00:54.242Z,44.96
2023-02-18T08:01:50.968Z,44.08
2023-02-18T08:02:47.662Z,44.22
2023-02-18T08:03:44.372Z,43.54
2023-02-18T08:04:40.933Z,43.83
2023-02-18T08:05:37.681Z,43.46
2023-02-18T08:06:37.296Z,44.57
2023-02-18T08:07:34.049Z,44.42
2023-02-18T08:08:32.211Z,44.34
2023-02-18T08:09:28.832Z,44.55
2023-02-18T08:10:25.540Z,43.47
2023-02-18T08:11:22.478Z,43.84
2023-02-18T08:12:19.208Z,44.00
2023-02-18T08:13:15.886Z,43.93
2023-02-18T08:14:12.484Z,44.37
2023-02-18T08:15:09.426Z,43.18
2023-02-18T08:16:06.486Z,44.00
2023-02-18T08:17:03.189Z,44.04
2023-02-18T08:17:59.882Z,43.91
2023-02-18T08:18:56.866Z,44.67
2023-02-18T08:19:53.442Z,44.50
2023-02-18T08:20:51.908Z,44.36
2023-02-18T08:21:48.530Z,43.97
2023-02-18T08:22:45.386Z,44.00
2023-02-18T08:23:42.180Z,44.99
2023-02-18T08:24:38.767Z,45.48
2023-02-18T08:25:35.427Z,46.11
2023-02-18T08:26:32.044Z,45.78
2023-02-18T08:27:28.674Z,45.92
2023-02-18T08:28:25.910Z,45.42
2023-02-18T08:29:22.762Z,45.24
2023-02-18T08:30:19.663Z,44.94
2023-02-18T08:31:19.318Z,44.49
2023-02-18T08:32:17.047Z,44.27
2023-02-18T08:33:14.110Z,44.58
2023-02-18T08:34:10.692Z,44.33
2023-02-18T08:35:08.050Z,43.78
2023-02-18T08:36:07.936Z,44.67
2023-02-18T08:37:04.997Z,44.64
2023-02-18T08:38:01.697Z,44.69
2023-02-18T08:39:00.109Z,44.27
2023-02-18T08:39:59.067Z,44.45
2023-02-18T08:41:04.250Z,45.24
2023-02-18T08:42:01.271Z,44.80
2023-02-18T08:42:57.956Z,44.47
2023-02-18T08:43:54.724Z,45.11
2023-02-18T08:44:51.364Z,44.42
2023-02-18T08:45:48.055Z,44.85
2023-02-18T08:46:46.591Z,45.08
2023-02-18T08:48:17.447Z,45.08
2023-02-18T08:48:59.769Z,44.68
2023-02-18T08:49:56.456Z,44.05
2023-02-18T08:50:53.171Z,45.01
2023-02-18T08:51:53.146Z,44.78
2023-02-18T08:52:49.707Z,45.17
2023-02-18T08:53:47.250Z,45.05
2023-02-18T08:54:43.794Z,44.49
2023-02-18T08:55:41.741Z,44.91
2023-02-18T08:56:39.596Z,44.68
2023-02-18T08:57:36.184Z,45.10
2023-02-18T08:58:32.878Z,45.66
2023-02-18T08:59:29.480Z,45.34
2023-02-18T09:00:26.745Z,45.95
2023-02-18T09:01:23.636Z,45.04
2023-02-18T09:02:20.300Z,45.89
2023-02-18T09:03:16.955Z,45.35
2023-02-18T09:04:13.660Z,45.61
2023-02-18T09:05:11.398Z,45.44
2023-02-18T09:06:08.530Z,45.54
2023-02-18T09:07:05.110Z,45.82
2023-02-18T09:08:01.705Z,45.83
2023-02-18T09:08:59.695Z,46.12
2023-02-18T09:09:57.464Z,44.91
2023-02-18T09:10:58.940Z,45.18
2023-02-18T09:11:55.539Z,44.68
2023-02-18T09:12:52.181Z,44.71
2023-02-18T09:13:48.873Z,44.86
2023-02-18T09:14:48.067Z,45.30
2023-02-18T09:15:44.698Z,45.23
2023-02-18T09:16:42.356Z,44.97
2023-02-18T09:17:38.946Z,45.68
2023-02-18T09:18:36.076Z,44.91
2023-02-18T09:19:32.751Z,44.80
2023-02-18T09:20:29.477Z,43.81
2023-02-18T09:21:27.003Z,42.94
2023-02-18T09:22:23.796Z,42.56
2023-02-18T09:23:21.366Z,42.84
2023-02-18T09:24:17.943Z,42.69
2023-02-18T09:25:14.592Z,42.84
2023-02-18T09:26:15.050Z,42.54
2023-02-18T09:27:12.128Z,41.06
2023-02-18T09:28:08.774Z,41.55
2023-02-18T09:29:05.437Z,40.11
2023-02-18T09:30:02.356Z,40.06
2023-02-18T09:31:04.742Z,40.10
2023-02-18T09:32:02.450Z,39.35
2023-02-18T09:32:59.105Z,38.17
2023-02-18T09:34:00.183Z,39.58
2023-02-18T09:34:56.740Z,39.64
2023-02-18T09:35:53.335Z,38.31
2023-02-18T09:36:49.902Z,38.20
2023-02-18T09:37:46.505Z,38.84
2023-02-18T09:38:43.138Z,38.92
2023-02-18T09:39:39.774Z,39.05
2023-02-18T09:40:39.441Z,38.04
2023-02-18T09:41:45.461Z,37.64
2023-02-18T09:42:42.116Z,37.69
2023-02-18T09:43:45.881Z,37.75
2023-02-18T09:44:51.112Z,38.50
2023-02-18T09:45:47.768Z,37.42
2023-02-18T09:47:05.323Z,37.69
2023-02-18T09:48:03.832Z,38.41
2023-02-18T09:49:07.258Z,37.72
2023-02-18T09:50:14.025Z,38.70
2023-02-18T09:51:15.304Z,38.03
2023-02-18T09:52:11.903Z,38.11
2023-02-18T09:53:12.679Z,37.39
2023-02-18T09:54:14.580Z,36.37
2023-02-18T09:55:24.846Z,37.23
2023-02-18T09:56:29.824Z,37.22
2023-02-18T09:57:30.237Z,36.54
2023-02-18T09:58:31.505Z,36.10
2023-02-18T09:59:28.983Z,36.41
2023-02-18T10:00:33.967Z,37.63
2023-02-18T10:01:37.450Z,36.20
2023-02-18T10:02:35.590Z,35.50
2023-02-18T10:03:32.466Z,36.39
2023-02-18T10:04:45.752Z,36.96
2023-02-18T10:05:55.592Z,37.12
2023-02-18T10:06:54.203Z,36.74
2023-02-18T10:07:55.100Z,36.84
2023-02-18T10:08:54.068Z,36.32
2023-02-18T10:09:52.253Z,37.21
2023-02-18T10:10:48.910Z,36.65
2023-02-18T10:11:49.527Z,36.29
2023-02-18T10:12:46.236Z,36.32
2023-02-18T10:13:43.882Z,36.82
2023-02-18T10:14:41.176Z,37.38
2023-02-18T10:15:39.032Z,37.17
2023-02-18T10:16:35.737Z,37.01
2023-02-18T10:17:33.555Z,36.67
2023-02-18T10:18:39.962Z,37.44
2023-02-18T10:19:40.997Z,37.46
2023-02-18T10:20:37.873Z,37.37
2023-02-18T10:21:36.206Z,38.11
2023-02-18T10:22:33.123Z,36.37
2023-02-18T10:23:31.352Z,36.64
2023-02-18T10:24:40.150Z,36.84
2023-02-18T10:25:42.285Z,36.36
2023-02-18T10:26:39.257Z,37.66
2023-02-18T10:27:39.074Z,37.17
2023-02-18T10:28:37.840Z,37.61
2023-02-18T10:29:35.939Z,36.67
2023-02-18T10:30:43.204Z,36.60
2023-02-18T10:31:45.815Z,36.88
2023-02-18T10:32:45.431Z,36.78
2023-02-18T10:33:48.235Z,36.09
2023-02-18T10:35:02.009Z,36.21
2023-02-18T10:36:24.507Z,36.24
2023-02-18T10:37:33.954Z,35.63
2023-02-18T10:38:36.536Z,35.54
2023-02-18T10:39:38.980Z,36.66
2023-02-18T10:41:02.888Z,35.22
2023-02-18T10:42:10.791Z,35.33
2023-02-18T10:43:14.431Z,34.88
2023-02-18T10:44:35.528Z,35.70
2023-02-18T10:45:59.844Z,35.35
2023-02-18T10:47:27.110Z,34.13
2023-02-18T10:48:51.794Z,35.11
2023-02-18T10:49:57.894Z,34.47
2023-02-18T10:50:56.040Z,34.30
2023-02-18T10:51:56.622Z,34.80
2023-02-18T10:52:56.521Z,35.32
2023-02-18T10:53:54.168Z,35.48
2023-02-18T10:55:09.463Z,36.03
2023-02-18T10:56:07.423Z,35.02
2023-02-18T10:57:04.805Z,35.19
2023-02-18T10:58:01.626Z,34.94
2023-02-18T10:59:18.889Z,35.50
2023-02-18T11:00:27.150Z,34.77
2023-02-18T11:01:23.937Z,34.25
2023-02-18T11:02:21.560Z,36.01
2023-02-18T11:03:24.199Z,35.23
2023-02-18T11:04:24.131Z,34.89
2023-02-18T11:05:26.997Z,35.15
2023-02-18T11:06:26.565Z,34.88
2023-02-18T11:07:26.918Z,36.61
2023-02-18T11:08:27.185Z,36.00
2023-02-18T11:09:47.610Z,35.59
2023-02-18T11:10:46.193Z,35.10
2023-02-18T11:11:45.697Z,34.23
2023-02-18T11:12:51.697Z,34.92
2023-02-18T11:13:58.717Z,34.03
2023-02-18T11:15:04.466Z,34.53
2023-02-18T11:16:05.051Z,34.37
2023-02-18T11:17:14.776Z,34.60
2023-02-18T11:18:26.785Z,34.70
2023-02-18T11:19:39.793Z,34.60
2023-02-18T11:20:38.533Z,34.66
2023-02-18T11:21:37.953Z,34.53
2023-02-18T11:22:41.549Z,34.36
2023-02-18T11:23:51.058Z,33.77
2023-02-18T11:24:48.757Z,33.92
2023-02-18T11:25:54.286Z,34.13
2023-02-18T11:26:50.968Z,34.27
2023-02-18T11:27:55.115Z,34.41
2023-02-18T11:29:01.519Z,34.51
2023-02-18T11:30:07.855Z,34.82
2023-02-18T11:31:05.462Z,33.90
2023-02-18T11:32:02.465Z,34.18
2023-02-18T11:33:16.431Z,35.29
2023-02-18T11:34:20.227Z,34.23
2023-02-18T11:35:19.944Z,33.96
2023-02-18T11:36:22.453Z,34.48
2023-02-18T11:37:21.181Z,34.43
2023-02-18T11:38:33.313Z,34.71
2023-02-18T11:39:30.245Z,35.08
2023-02-18T11:40:36.903Z,35.28
2023-02-18T11:41:37.435Z,34.74
2023-02-18T11:42:34.306Z,34.97
2023-02-18T11:43:31.701Z,34.78
2023-02-18T11:44:37.643Z,33.48
2023-02-18T11:45:35.486Z,33.98
2023-02-18T11:46:32.295Z,34.21
2023-02-18T11:47:35.524Z,35.22
2023-02-18T11:48:32.201Z,34.08
2023-02-18T11:49:30.803Z,34.83
2023-02-18T11:50:31.725Z,34.46
2023-02-18T11:51:36.300Z,35.32
2023-02-18T11:52:39.308Z,35.68
2023-02-18T11:53:37.794Z,34.18
2023-02-18T11:54:36.133Z,34.53
2023-02-18T11:55:32.881Z,34.51
2023-02-18T11:56:32.783Z,34.01
2023-02-18T11:57:30.145Z,34.78
2023-02-18T11:58:28.078Z,34.17
2023-02-18T11:59:25.507Z,34.25
2023-02-18T12:00:25.158Z,33.47
2023-02-18T12:01:42.042Z,33.96
2023-02-18T12:02:41.343Z,34.17
2023-02-18T12:03:46.688Z,34.22
2023-02-18T12:04:48.645Z,33.35
2023-02-18T12:05:45.965Z,33.34
2023-02-18T12:06:52.439Z,32.98
2023-02-18T12:08:07.818Z,33.70
2023-02-18T12:09:11.252Z,32.57
2023-02-18T12:10:38.375Z,32.81
2023-02-18T12:11:42.409Z,33.15
2023-02-18T12:13:07.086Z,31.97
2023-02-18T12:14:03.778Z,32.08
2023-02-18T12:15:00.687Z,32.71
2023-02-18T12:16:00.310Z,33.21
2023-02-18T12:17:14.281Z,32.75
2023-02-18T12:18:19.674Z,32.34
2023-02-18T12:19:22.231Z,32.36
2023-02-18T12:20:37.040Z,32.56
2023-02-18T12:21:50.357Z,32.86
2023-02-18T12:23:11.800Z,32.70
2023-02-18T12:24:32.093Z,32.14
2023-02-18T12:25:47.175Z,32.40
2023-02-18T12:26:58.888Z,32.71
2023-02-18T12:28:32.483Z,32.58
2023-02-18T12:29:38.165Z,32.96
2023-02-18T12:30:43.661Z,32.90
2023-02-18T12:32:29.765Z,32.91
2023-02-18T12:33:42.690Z,33.10
2023-02-18T12:34:44.781Z,32.23
2023-02-18T12:35:41.358Z,32.03
2023-02-18T12:36:56.377Z,31.23
2023-02-18T12:38:21.972Z,31.73
2023-02-18T12:39:39.680Z,32.07
2023-02-18T12:41:07.623Z,32.58
2023-02-18T12:42:23.499Z,31.22
2023-02-18T12:43:52.343Z,31.38
2023-02-18T12:45:14.302Z,30.86
2023-02-18T12:46:13.833Z,30.16
2023-02-18T12:47:22.625Z,30.86
2023-02-18T12:48:22.140Z,29.60
2023-02-18T12:49:24.853Z,29.77
2023-02-18T12:50:58.388Z,30.36
2023-02-18T12:52:13.066Z,30.04
2023-02-18T12:53:33.856Z,30.27
2023-02-18T12:55:03.893Z,30.35
2023-02-18T12:56:03.111Z,30.31
2023-02-18T12:57:14.893Z,30.20
2023-02-18T12:58:26.761Z,29.20
2023-02-18T12:59:55.770Z,29.28
2023-02-18T13:01:21.252Z,29.98